Time;durP1;ratioP1;P1;durP2;ratioP2;P2;SDS_P1;SDS_P2;PMS_P1;PMS_P2;Temp;Humidity;BMP_temperature;BMP_pressure;BME280_temperature;BME280_humidity;BME280_pressure;Samples;Min_cycle;Max_cycle;Signal;HPM_P1;HPM_P2
2022/06/01 00:01:18;;;;;;;20.15;14.98;;;;;;;;;;5023681;28;20041;-58
2022/06/01 00:03:44;;;;;;;20.63;14.60;;;;;;;;;;5026996;28;20471;-54
2022/06/01 00:06:11;;;;;;;22.60;15.88;;;;;;;;;;5019944;28;20068;-56
2022/06/01 00:08:37;;;;;;;21.52;15.43;;;;;;;;;;5029692;28;20471;-59
2022/06/01 00:11:03;;;;;;;18.48;14.05;;;;;;;;;;5029081;28;20033;-57
2022/06/01 00:13:28;;;;;;;20.33;14.68;;;;;;;;;;5030994;28;20444;-58
2022/06/01 00:15:54;;;;;;;20.88;14.73;;;;;;;;;;5025791;28;20041;-57
2022/06/01 00:18:22;;;;;;;19.80;14.10;;;;;;;;;;5032908;28;20371;-55
2022/06/01 00:20:47;;;;;;;18.30;13.10;;;;;;;;;;5010941;28;20190;-57
2022/06/01 00:23:13;;;;;;;18.25;12.70;;;;;;;;;;5030718;28;20432;-56
2022/06/01 00:25:38;;;;;;;18.15;12.68;;;;;;;;;;5029526;28;20430;-56
2022/06/01 00:28:05;;;;;;;15.75;12.13;;;;;;;;;;5031620;28;20532;-56
2022/06/01 00:30:32;;;;;;;19.33;11.52;;;;;;;;;;5029178;28;20393;-55
2022/06/01 00:32:57;;;;;;;17.42;11.52;;;;;;;;;;5029821;28;20038;-57
2022/06/01 00:35:24;;;;;;;15.52;11.65;;;;;;;;;;5028539;28;20032;-56
2022/06/01 00:37:50;;;;;;;15.65;12.10;;;;;;;;;;5027345;28;20660;-58
2022/06/01 00:40:18;;;;;;;16.83;12.40;;;;;;;;;;5026495;28;20075;-58
2022/06/01 00:42:52;;;;;;;16.98;12.35;;;;;;;;;;5030218;28;20033;-58
2022/06/01 00:45:20;;;;;;;17.67;12.18;;;;;;;;;;5030165;28;20033;-58
2022/06/01 00:47:45;;;;;;;19.83;12.55;;;;;;;;;;5029096;28;20030;-59
2022/06/01 00:50:17;;;;;;;15.90;12.38;;;;;;;;;;5014453;28;20037;-58
2022/06/01 00:52:50;;;;;;;16.10;12.05;;;;;;;;;;5029402;28;20034;-58
2022/06/01 00:55:17;;;;;;;18.50;12.20;;;;;;;;;;5028351;28;20049;-58
2022/06/01 00:57:44;;;;;;;20.77;12.15;;;;;;;;;;5030286;28;20490;-59
2022/06/01 01:00:20;;;;;;;17.02;11.68;;;;;;;;;;5010123;28;20038;-59
2022/06/01 01:02:46;;;;;;;16.10;12.20;;;;;;;;;;5010505;28;20069;-59
2022/06/01 01:05:13;;;;;;;16.27;11.85;;;;;;;;;;5024771;28;20060;-58
2022/06/01 01:07:40;;;;;;;15.63;11.95;;;;;;;;;;5029063;28;20091;-59
2022/06/01 01:10:07;;;;;;;18.13;12.38;;;;;;;;;;5029823;28;20030;-60
2022/06/01 01:12:56;;;;;;;16.58;12.57;;;;;;;;;;5026858;28;20083;-60
2022/06/01 01:15:19;;;;;;;16.08;12.55;;;;;;;;;;5029484;28;20469;-59
2022/06/01 01:17:47;;;;;;;16.52;12.50;;;;;;;;;;5027198;28;20037;-59
2022/06/01 01:20:13;;;;;;;17.45;12.85;;;;;;;;;;5030558;28;20038;-59
2022/06/01 01:23:06;;;;;;;17.02;12.88;;;;;;;;;;5027793;28;20133;-59
2022/06/01 01:25:34;;;;;;;17.10;12.68;;;;;;;;;;5022210;28;20036;-61
2022/06/01 01:28:02;;;;;;;19.23;12.82;;;;;;;;;;5022104;28;20372;-60
2022/06/01 01:30:36;;;;;;;15.40;12.07;;;;;;;;;;5021991;28;20041;-60
2022/06/01 01:33:18;;;;;;;23.13;12.65;;;;;;;;;;5029016;28;20048;-60
2022/06/01 01:35:47;;;;;;;17.05;13.00;;;;;;;;;;5024463;28;20037;-61
2022/06/01 01:38:24;;;;;;;18.42;13.23;;;;;;;;;;5023976;28;20065;-61
2022/06/01 01:41:07;;;;;;;17.35;12.60;;;;;;;;;;5026939;28;20034;-60
2022/06/01 01:43:37;;;;;;;19.75;13.80;;;;;;;;;;5029497;28;20033;-62
2022/06/01 01:46:03;;;;;;;19.58;13.88;;;;;;;;;;5022503;28;20025;-60
2022/06/01 01:48:30;;;;;;;20.20;14.30;;;;;;;;;;5029281;28;20039;-60
2022/06/01 01:50:55;;;;;;;19.13;14.05;;;;;;;;;;5026673;28;20061;-61
2022/06/01 01:53:21;;;;;;;17.67;13.93;;;;;;;;;;5027833;28;20453;-60
2022/06/01 01:56:00;;;;;;;18.33;13.48;;;;;;;;;;5027721;28;20112;-60
2022/06/01 01:58:44;;;;;;;18.80;14.00;;;;;;;;;;5012873;28;20056;-60
2022/06/01 02:01:21;;;;;;;21.27;14.05;;;;;;;;;;5029130;28;20124;-60
2022/06/01 02:03:54;;;;;;;19.27;14.23;;;;;;;;;;5021664;28;20026;-60
2022/06/01 02:06:39;;;;;;;19.20;14.43;;;;;;;;;;5023831;28;20034;-61
2022/06/01 02:09:08;;;;;;;20.25;14.38;;;;;;;;;;5021242;28;20030;-60
2022/06/01 02:14:30;;;;;;;22.05;15.63;;;;;;;;;;5032671;28;20517;-60
2022/06/01 02:17:08;;;;;;;23.02;15.40;;;;;;;;;;5031342;28;20022;-60
2022/06/01 02:19:47;;;;;;;22.58;15.38;;;;;;;;;;5042843;28;20436;-61
2022/06/01 02:22:13;;;;;;;19.08;14.85;;;;;;;;;;5023915;28;20033;-58
2022/06/01 02:24:40;;;;;;;21.20;15.25;;;;;;;;;;5029050;28;20037;-60
2022/06/01 02:27:06;;;;;;;22.92;15.88;;;;;;;;;;5032960;28;20041;-59
2022/06/01 02:29:40;;;;;;;24.38;15.45;;;;;;;;;;5033627;28;20030;-62
2022/06/01 02:32:06;;;;;;;22.92;16.17;;;;;;;;;;5006245;28;20030;-62
2022/06/01 02:34:34;;;;;;;21.90;16.13;;;;;;;;;;5032367;28;20092;-61
2022/06/01 02:37:04;;;;;;;22.80;16.48;;;;;;;;;;5031781;28;20064;-60
2022/06/01 02:39:31;;;;;;;26.90;17.13;;;;;;;;;;5031909;28;20054;-60
2022/06/01 02:42:30;;;;;;;25.00;17.02;;;;;;;;;;5014689;28;20568;-58
2022/06/01 02:45:01;;;;;;;31.08;19.27;;;;;;;;;;5021736;28;20087;-60
2022/06/01 02:47:32;;;;;;;34.00;19.30;;;;;;;;;;5015706;28;20083;-60
2022/06/01 02:49:58;;;;;;;31.73;19.00;;;;;;;;;;5030468;28;20079;-60
2022/06/01 02:52:24;;;;;;;26.90;18.23;;;;;;;;;;5031066;28;20041;-59
2022/06/01 02:54:50;;;;;;;30.02;19.00;;;;;;;;;;5030471;28;20390;-60
2022/06/01 02:57:15;;;;;;;26.92;18.35;;;;;;;;;;5030639;28;20029;-59
2022/06/01 02:59:42;;;;;;;26.13;17.30;;;;;;;;;;5013762;28;20116;-60
2022/06/01 03:02:09;;;;;;;28.63;18.42;;;;;;;;;;5029320;28;20033;-60
2022/06/01 03:04:39;;;;;;;28.48;19.13;;;;;;;;;;5010751;28;20033;-58
2022/06/01 03:07:05;;;;;;;33.53;20.13;;;;;;;;;;5031210;28;20091;-59
2022/06/01 03:09:31;;;;;;;30.38;20.73;;;;;;;;;;5033015;28;20041;-59
2022/06/01 03:11:56;;;;;;;32.60;21.25;;;;;;;;;;5029890;28;20136;-58
2022/06/01 03:14:22;;;;;;;31.13;20.35;;;;;;;;;;5031927;28;20038;-57
2022/06/01 03:16:47;;;;;;;33.80;20.30;;;;;;;;;;5030350;28;20068;-58
2022/06/01 03:19:13;;;;;;;32.38;20.58;;;;;;;;;;5030644;28;20064;-59
2022/06/01 03:21:40;;;;;;;34.88;22.20;;;;;;;;;;5031288;28;20422;-61
2022/06/01 03:24:05;;;;;;;35.42;22.70;;;;;;;;;;5033679;28;20075;-56
2022/06/01 03:26:31;;;;;;;35.13;22.33;;;;;;;;;;5031242;28;20331;-58
2022/06/01 03:28:56;;;;;;;31.73;21.35;;;;;;;;;;5031854;28;20458;-57
2022/06/01 03:31:22;;;;;;;33.80;22.77;;;;;;;;;;5030607;28;20018;-58
2022/06/01 03:33:48;;;;;;;31.10;21.10;;;;;;;;;;5013204;28;20026;-58
2022/06/01 03:36:13;;;;;;;36.08;22.30;;;;;;;;;;5030857;28;20032;-59
2022/06/01 03:38:38;;;;;;;34.75;22.45;;;;;;;;;;5033231;28;20497;-62
2022/06/01 03:41:05;;;;;;;33.42;21.83;;;;;;;;;;5029131;28;20072;-61
2022/06/01 03:43:30;;;;;;;34.70;22.88;;;;;;;;;;5031652;28;20489;-62
2022/06/01 03:45:56;;;;;;;34.67;22.40;;;;;;;;;;5032352;28;20034;-62
2022/06/01 03:48:32;;;;;;;35.47;22.92;;;;;;;;;;5032155;28;20526;-62
2022/06/01 03:50:58;;;;;;;37.15;23.63;;;;;;;;;;5014016;28;20553;-62
2022/06/01 03:53:25;;;;;;;37.60;23.45;;;;;;;;;;5033479;28;20044;-62
2022/06/01 03:55:52;;;;;;;37.28;23.67;;;;;;;;;;5031793;28;20052;-62
2022/06/01 03:58:22;;;;;;;35.47;23.48;;;;;;;;;;5032334;28;20413;-62
2022/06/01 04:00:48;;;;;;;38.38;23.25;;;;;;;;;;5031637;28;20465;-62
2022/06/01 04:03:14;;;;;;;37.25;23.85;;;;;;;;;;5032035;28;20041;-62
2022/06/01 04:05:39;;;;;;;34.67;22.92;;;;;;;;;;5031381;28;20037;-62
2022/06/01 04:08:06;;;;;;;40.15;23.73;;;;;;;;;;5039708;28;20037;-62
2022/06/01 04:10:34;;;;;;;39.17;23.83;;;;;;;;;;5047548;28;20033;-62
2022/06/01 04:13:00;;;;;;;36.97;23.13;;;;;;;;;;5031875;28;20075;-62
2022/06/01 04:15:26;;;;;;;38.22;23.58;;;;;;;;;;5032746;28;20057;-62
2022/06/01 04:17:51;;;;;;;38.97;23.08;;;;;;;;;;5035718;28;20082;-62
2022/06/01 04:20:16;;;;;;;42.75;23.42;;;;;;;;;;5032525;28;20060;-61
2022/06/01 04:22:43;;;;;;;39.67;23.85;;;;;;;;;;5031074;28;20029;-62
2022/06/01 04:25:12;;;;;;;36.40;22.45;;;;;;;;;;5034688;28;20040;-62
2022/06/01 04:27:38;;;;;;;34.05;22.35;;;;;;;;;;5032988;28;20076;-61
2022/06/01 04:30:06;;;;;;;31.23;21.40;;;;;;;;;;5031566;28;20064;-61
2022/06/01 04:32:32;;;;;;;33.88;21.45;;;;;;;;;;5027973;28;20459;-62
2022/06/01 04:34:59;;;;;;;30.90;21.10;;;;;;;;;;5026668;28;20060;-61
2022/06/01 04:37:24;;;;;;;32.67;21.33;;;;;;;;;;5032001;28;20160;-62
2022/06/01 04:39:50;;;;;;;30.48;20.05;;;;;;;;;;5031970;28;20458;-61
2022/06/01 04:42:15;;;;;;;31.80;21.25;;;;;;;;;;5031323;28;20037;-61
2022/06/01 04:44:41;;;;;;;33.17;20.90;;;;;;;;;;5030927;28;20049;-63
2022/06/01 04:47:08;;;;;;;31.40;20.95;;;;;;;;;;5031841;28;20112;-62
2022/06/01 04:49:34;;;;;;;31.52;20.27;;;;;;;;;;5031644;28;20037;-62
2022/06/01 04:51:59;;;;;;;30.00;20.35;;;;;;;;;;5034470;28;20033;-62
2022/06/01 04:54:24;;;;;;;28.92;20.30;;;;;;;;;;5031391;28;20359;-61
2022/06/01 04:56:50;;;;;;;29.88;20.27;;;;;;;;;;5030823;28;20065;-62
2022/06/01 04:59:17;;;;;;;29.90;20.80;;;;;;;;;;5032340;28;20430;-62
2022/06/01 05:01:43;;;;;;;32.33;20.13;;;;;;;;;;5030469;28;20022;-63
2022/06/01 05:04:09;;;;;;;31.98;21.35;;;;;;;;;;5027632;28;20040;-61
2022/06/01 05:06:35;;;;;;;36.08;21.13;;;;;;;;;;5031426;28;20025;-62
2022/06/01 05:09:00;;;;;;;30.55;21.80;;;;;;;;;;5031360;28;20104;-62
2022/06/01 05:11:26;;;;;;;31.60;21.08;;;;;;;;;;5031295;28;20033;-62
2022/06/01 05:13:51;;;;;;;31.83;20.58;;;;;;;;;;5030732;28;20037;-62
2022/06/01 05:16:17;;;;;;;32.85;21.50;;;;;;;;;;5038827;28;20429;-62
2022/06/01 05:18:43;;;;;;;33.33;21.05;;;;;;;;;;5035340;28;20044;-63
2022/06/01 05:21:09;;;;;;;32.03;21.63;;;;;;;;;;5032034;28;20034;-62
2022/06/01 05:23:34;;;;;;;32.88;21.42;;;;;;;;;;5032233;28;20522;-61
2022/06/01 05:26:00;;;;;;;34.85;21.38;;;;;;;;;;5031591;28;20037;-61
2022/06/01 05:28:28;;;;;;;32.67;21.17;;;;;;;;;;5031893;28;20030;-61
2022/06/01 05:31:12;;;;;;;32.47;21.75;;;;;;;;;;5030789;28;20041;-62
2022/06/01 05:33:40;;;;;;;32.85;21.17;;;;;;;;;;5021672;28;20037;-61
2022/06/01 05:36:05;;;;;;;29.92;21.30;;;;;;;;;;5031343;28;20160;-61
2022/06/01 05:38:31;;;;;;;29.40;20.15;;;;;;;;;;5014208;28;20457;-61
2022/06/01 05:40:56;;;;;;;32.63;21.90;;;;;;;;;;5031467;28;20037;-61
2022/06/01 05:43:22;;;;;;;34.58;21.58;;;;;;;;;;5031266;28;20033;-61
2022/06/01 05:45:47;;;;;;;35.63;21.65;;;;;;;;;;5030657;28;20037;-61
2022/06/01 05:48:16;;;;;;;37.72;21.00;;;;;;;;;;5030913;28;20458;-60
2022/06/01 05:50:42;;;;;;;36.47;21.02;;;;;;;;;;5035038;28;20033;-60
2022/06/01 05:53:08;;;;;;;38.33;21.48;;;;;;;;;;5035400;28;20470;-60
2022/06/01 05:55:35;;;;;;;32.65;21.85;;;;;;;;;;5035474;28;20095;-60
2022/06/01 05:58:01;;;;;;;33.92;21.65;;;;;;;;;;5034482;28;20037;-60
2022/06/01 06:00:26;;;;;;;33.33;21.42;;;;;;;;;;5035871;28;20033;-60
2022/06/01 06:02:52;;;;;;;31.10;19.88;;;;;;;;;;5034578;28;20068;-60
2022/06/01 06:08:02;;;;;;;34.45;18.00;;;;;;;;;;5033713;28;20492;-61
2022/06/01 06:10:28;;;;;;;36.45;20.85;;;;;;;;;;5034362;28;20026;-58
2022/06/01 06:12:54;;;;;;;35.20;20.38;;;;;;;;;;5033048;28;20474;-56
2022/06/01 06:15:20;;;;;;;31.42;20.35;;;;;;;;;;5034839;28;20064;-55
2022/06/01 06:17:45;;;;;;;34.13;20.67;;;;;;;;;;5038197;28;20032;-56
2022/06/01 06:20:14;;;;;;;33.00;19.52;;;;;;;;;;5034296;28;20087;-57
2022/06/01 06:22:40;;;;;;;34.30;19.30;;;;;;;;;;5035593;28;20045;-54
2022/06/01 06:25:06;;;;;;;34.33;20.65;;;;;;;;;;5033754;28;20080;-54
2022/06/01 06:27:32;;;;;;;32.45;20.98;;;;;;;;;;5034540;28;20061;-56
2022/06/01 06:29:57;;;;;;;33.60;20.08;;;;;;;;;;5034237;28;20033;-54
2022/06/01 06:32:24;;;;;;;31.70;20.17;;;;;;;;;;5034237;28;20030;-57
2022/06/01 06:34:49;;;;;;;30.83;19.83;;;;;;;;;;5033064;28;20044;-60
2022/06/01 06:37:14;;;;;;;28.48;18.98;;;;;;;;;;5034405;28;20038;-56
2022/06/01 06:39:40;;;;;;;32.15;19.73;;;;;;;;;;5034714;28;20033;-57
2022/06/01 06:42:05;;;;;;;30.85;19.23;;;;;;;;;;5014603;28;20038;-58
2022/06/01 06:44:33;;;;;;;30.27;18.25;;;;;;;;;;5035003;28;20025;-58
2022/06/01 06:46:58;;;;;;;29.02;17.42;;;;;;;;;;5033167;28;20029;-57
2022/06/01 06:49:24;;;;;;;28.50;17.63;;;;;;;;;;5033205;28;20416;-58
2022/06/01 06:51:49;;;;;;;26.73;15.20;;;;;;;;;;5036529;28;20465;-60
2022/06/01 06:54:15;;;;;;;27.40;15.93;;;;;;;;;;5019761;28;20026;-57
2022/06/01 06:56:40;;;;;;;29.42;16.25;;;;;;;;;;5031489;28;20030;-59
2022/06/01 06:59:06;;;;;;;20.02;12.13;;;;;;;;;;5033409;28;20107;-58
2022/06/01 07:01:31;;;;;;;22.63;14.88;;;;;;;;;;5033148;28;20420;-58
2022/06/01 07:03:57;;;;;;;21.02;12.60;;;;;;;;;;5024195;28;20113;-58
2022/06/01 07:06:24;;;;;;;20.67;12.27;;;;;;;;;;5032056;28;20033;-58
2022/06/01 07:08:53;;;;;;;18.30;10.50;;;;;;;;;;5033641;28;20029;-60
2022/06/01 07:11:21;;;;;;;18.35;10.63;;;;;;;;;;5032326;28;20434;-60
2022/06/01 07:13:47;;;;;;;19.27;10.68;;;;;;;;;;5028968;28;20397;-58
2022/06/01 07:16:15;;;;;;;18.75;10.65;;;;;;;;;;5033814;28;20140;-59
2022/06/01 07:18:50;;;;;;;15.73;10.15;;;;;;;;;;5034464;28;20108;-57
2022/06/01 07:21:17;;;;;;;16.48;10.15;;;;;;;;;;5030414;28;20108;-60
2022/06/01 07:23:43;;;;;;;16.15;8.85;;;;;;;;;;5029229;28;20069;-59
2022/06/01 07:26:15;;;;;;;16.75;9.45;;;;;;;;;;5019245;28;20486;-59
2022/06/01 07:28:47;;;;;;;14.95;8.60;;;;;;;;;;5031654;28;20056;-60
2022/06/01 07:31:13;;;;;;;12.93;7.75;;;;;;;;;;5014116;28;20045;-60
2022/06/01 07:33:39;;;;;;;14.20;8.25;;;;;;;;;;5030245;28;20041;-59
2022/06/01 07:36:07;;;;;;;13.38;8.75;;;;;;;;;;5031532;28;20045;-59
2022/06/01 07:44:24;;;;;;;12.48;7.63;;;;;;;;;;5031092;28;20076;-58
2022/06/01 07:46:50;;;;;;;13.20;8.43;;;;;;;;;;5032903;28;20120;-58
2022/06/01 07:49:16;;;;;;;10.85;8.32;;;;;;;;;;5031854;28;20037;-59
2022/06/01 07:51:42;;;;;;;12.05;8.77;;;;;;;;;;5032539;28;20048;-60
2022/06/01 07:54:08;;;;;;;11.95;8.68;;;;;;;;;;5031078;28;20459;-57
2022/06/01 07:56:34;;;;;;;8.90;5.85;;;;;;;;;;5032617;28;20038;-58
2022/06/01 07:59:00;;;;;;;9.98;6.70;;;;;;;;;;5029947;28;20559;-59
2022/06/01 08:01:26;;;;;;;8.93;6.68;;;;;;;;;;5033597;28;20037;-59
2022/06/01 08:03:56;;;;;;;10.88;6.65;;;;;;;;;;5032037;28;20068;-59
2022/06/01 08:06:23;;;;;;;9.68;6.93;;;;;;;;;;5028621;28;20474;-59
2022/06/01 08:08:48;;;;;;;10.38;7.28;;;;;;;;;;5018296;28;20133;-58
2022/06/01 08:11:14;;;;;;;13.57;7.60;;;;;;;;;;5032698;28;20470;-60
2022/06/01 08:13:40;;;;;;;11.27;7.63;;;;;;;;;;5031633;28;20033;-59
2022/06/01 08:16:06;;;;;;;13.40;7.40;;;;;;;;;;5032659;28;20036;-59
2022/06/01 08:18:31;;;;;;;8.90;6.10;;;;;;;;;;5031958;28;20041;-60
2022/06/01 08:20:57;;;;;;;8.73;5.25;;;;;;;;;;5030947;28;20419;-59
2022/06/01 08:23:25;;;;;;;7.30;4.78;;;;;;;;;;5013556;28;20557;-58
2022/06/01 08:25:51;;;;;;;8.25;4.68;;;;;;;;;;5032213;28;20393;-59
2022/06/01 08:28:17;;;;;;;7.35;5.00;;;;;;;;;;5029603;28;20029;-59
2022/06/01 08:30:43;;;;;;;7.75;5.00;;;;;;;;;;5031564;28;20121;-59
2022/06/01 08:33:09;;;;;;;7.13;4.80;;;;;;;;;;5030914;28;20108;-60
2022/06/01 08:35:37;;;;;;;7.40;4.95;;;;;;;;;;5031724;28;20462;-57
2022/06/01 08:38:04;;;;;;;6.18;3.60;;;;;;;;;;5030468;28;20546;-60
2022/06/01 08:40:39;;;;;;;6.82;4.13;;;;;;;;;;5031890;28;20037;-59
2022/06/01 08:43:11;;;;;;;7.18;4.10;;;;;;;;;;5030763;28;20080;-60
2022/06/01 08:45:37;;;;;;;6.03;3.35;;;;;;;;;;5031684;28;20152;-59
2022/06/01 08:48:05;;;;;;;5.95;4.13;;;;;;;;;;5030700;28;20754;-58
2022/06/01 08:50:38;;;;;;;5.32;3.65;;;;;;;;;;5031907;28;20037;-58
2022/06/01 08:53:07;;;;;;;7.22;3.83;;;;;;;;;;5029934;28;20037;-60
2022/06/01 08:55:44;;;;;;;3.92;3.13;;;;;;;;;;5031224;28;20052;-59
2022/06/01 08:58:23;;;;;;;4.47;2.78;;;;;;;;;;5030792;28;20033;-59
2022/06/01 09:01:00;;;;;;;3.35;2.17;;;;;;;;;;5031394;28;20397;-58
2022/06/01 09:03:40;;;;;;;5.28;2.53;;;;;;;;;;5032341;28;20026;-59
2022/06/01 09:06:16;;;;;;;5.83;3.17;;;;;;;;;;5030565;28;20441;-60
2022/06/01 09:08:41;;;;;;;4.75;3.28;;;;;;;;;;5030266;28;20087;-59
2022/06/01 09:11:10;;;;;;;6.43;3.78;;;;;;;;;;5030952;28;20033;-59
2022/06/01 09:13:59;;;;;;;5.32;3.60;;;;;;;;;;5030854;28;20405;-59
2022/06/01 09:16:43;;;;;;;5.68;2.90;;;;;;;;;;5030855;28;20481;-59
2022/06/01 09:19:16;;;;;;;4.68;2.97;;;;;;;;;;5030427;28;20065;-60
2022/06/01 09:24:34;;;;;;;3.80;2.50;;;;;;;;;;5029032;28;20417;-60
2022/06/01 09:27:03;;;;;;;4.32;2.83;;;;;;;;;;5015147;28;20030;-60
2022/06/01 09:29:32;;;;;;;3.30;2.80;;;;;;;;;;5030178;28;20025;-59
2022/06/01 09:32:04;;;;;;;4.32;3.03;;;;;;;;;;5031210;28;20029;-59
2022/06/01 09:34:46;;;;;;;3.92;2.53;;;;;;;;;;5020920;28;20060;-60
2022/06/01 09:37:25;;;;;;;4.28;2.60;;;;;;;;;;5011503;28;20463;-60
2022/06/01 09:39:59;;;;;;;4.32;2.80;;;;;;;;;;5022978;28;20049;-60
2022/06/01 09:42:37;;;;;;;5.68;2.90;;;;;;;;;;5013111;28;20061;-60
2022/06/01 09:45:22;;;;;;;3.58;2.97;;;;;;;;;;5030632;28;20465;-59
2022/06/01 09:47:50;;;;;;;5.15;3.00;;;;;;;;;;5030709;28;20072;-59
2022/06/01 09:50:29;;;;;;;4.40;3.10;;;;;;;;;;5029618;28;20041;-59
2022/06/01 09:53:11;;;;;;;4.30;3.10;;;;;;;;;;5011637;28;20034;-59
2022/06/01 09:56:06;;;;;;;4.38;2.90;;;;;;;;;;5025544;28;20133;-59
2022/06/01 10:06:57;;;;;;;3.45;2.30;;;;;;;;;;5031040;28;20539;-59
2022/06/01 10:09:29;;;;;;;4.78;2.30;;;;;;;;;;5029613;28;20072;-60
2022/06/01 10:11:56;;;;;;;3.63;2.60;;;;;;;;;;5030604;28;20044;-58
2022/06/01 10:14:24;;;;;;;2.50;2.17;;;;;;;;;;5030000;28;20064;-59
2022/06/01 10:17:51;;;;;;;3.95;2.70;;;;;;;;;;5029444;28;20025;-60
2022/06/01 10:20:55;;;;;;;3.42;2.50;;;;;;;;;;4966646;28;20179;-59
2022/06/01 10:23:47;;;;;;;4.32;2.95;;;;;;;;;;4956738;28;20400;-59
2022/06/01 10:26:25;;;;;;;4.78;2.90;;;;;;;;;;4962429;28;20045;-60
2022/06/01 10:29:06;;;;;;;3.60;2.72;;;;;;;;;;4968556;28;20126;-59
2022/06/01 10:31:39;;;;;;;4.75;2.88;;;;;;;;;;4958569;28;20513;-59
2022/06/01 10:34:04;;;;;;;4.25;2.90;;;;;;;;;;4968375;28;20035;-59
2022/06/01 10:37:02;;;;;;;6.05;3.10;;;;;;;;;;4972455;28;20057;-59
2022/06/01 10:39:40;;;;;;;5.03;2.90;;;;;;;;;;4974336;28;20125;-62
2022/06/01 10:42:17;;;;;;;4.20;3.20;;;;;;;;;;4964287;28;20518;-60
2022/06/01 10:45:04;;;;;;;7.07;3.45;;;;;;;;;;4968021;28;20049;-59
2022/06/01 10:47:46;;;;;;;5.32;3.28;;;;;;;;;;4965811;28;20507;-57
2022/06/01 10:50:19;;;;;;;6.07;3.28;;;;;;;;;;4935384;29;20096;-57
2022/06/01 10:52:54;;;;;;;4.53;3.50;;;;;;;;;;4971506;28;20027;-59
2022/06/01 10:55:36;;;;;;;7.13;3.60;;;;;;;;;;4964737;28;20050;-56
2022/06/01 10:58:03;;;;;;;6.18;4.20;;;;;;;;;;5022567;28;20099;-58
2022/06/01 11:01:01;;;;;;;5.05;3.72;;;;;;;;;;5014606;28;20127;-57
2022/06/01 11:03:30;;;;;;;7.25;4.20;;;;;;;;;;5026151;28;20124;-58
2022/06/01 11:06:07;;;;;;;4.97;3.40;;;;;;;;;;5033846;28;20498;-57
2022/06/01 11:09:10;;;;;;;6.25;3.90;;;;;;;;;;5031939;28;20026;-56
2022/06/01 11:11:54;;;;;;;6.38;3.55;;;;;;;;;;5015529;28;20034;-58
2022/06/01 11:14:25;;;;;;;7.15;3.80;;;;;;;;;;5033968;28;20109;-58
2022/06/01 11:16:57;;;;;;;5.80;3.05;;;;;;;;;;5033457;28;20041;-57
2022/06/01 11:19:28;;;;;;;4.13;2.70;;;;;;;;;;5015144;28;20030;-60
2022/06/01 11:22:21;;;;;;;4.68;3.20;;;;;;;;;;5031686;28;20042;-58
2022/06/01 11:24:55;;;;;;;7.03;3.70;;;;;;;;;;5014448;28;20093;-58
2022/06/01 11:27:32;;;;;;;7.70;3.40;;;;;;;;;;5019921;28;20033;-58
2022/06/01 11:30:29;;;;;;;9.18;3.70;;;;;;;;;;5029517;28;20037;-58
2022/06/01 11:33:09;;;;;;;8.05;3.75;;;;;;;;;;5001482;28;20124;-59
2022/06/01 11:35:39;;;;;;;6.13;3.28;;;;;;;;;;5031120;28;20496;-59
2022/06/01 11:38:15;;;;;;;7.20;3.40;;;;;;;;;;5022613;28;20037;-59
2022/06/01 11:40:47;;;;;;;5.80;3.10;;;;;;;;;;5016281;28;20029;-59
2022/06/01 11:43:18;;;;;;;4.25;2.70;;;;;;;;;;5032404;28;20042;-59
2022/06/01 11:45:57;;;;;;;4.13;2.60;;;;;;;;;;5032876;28;20381;-59
2022/06/01 11:48:35;;;;;;;4.88;2.90;;;;;;;;;;5031928;28;20040;-58
2022/06/01 11:51:19;;;;;;;5.43;3.35;;;;;;;;;;5031329;28;20044;-58
2022/06/01 11:54:08;;;;;;;4.93;3.20;;;;;;;;;;5011642;28;20054;-60
2022/06/01 11:56:47;;;;;;;5.90;3.38;;;;;;;;;;5003038;28;20053;-59
2022/06/01 11:59:32;;;;;;;8.35;3.33;;;;;;;;;;5013257;28;20038;-58
2022/06/01 12:01:58;;;;;;;5.88;3.60;;;;;;;;;;5021471;28;20108;-60
2022/06/01 12:04:33;;;;;;;4.82;2.88;;;;;;;;;;5027530;28;20068;-59
2022/06/01 12:07:21;;;;;;;6.15;2.97;;;;;;;;;;5028773;28;20037;-59
2022/06/01 12:10:00;;;;;;;5.78;3.22;;;;;;;;;;5030614;28;20155;-60
2022/06/01 12:13:09;;;;;;;6.28;3.05;;;;;;;;;;5030918;28;20394;-60
2022/06/01 12:16:02;;;;;;;6.38;2.70;;;;;;;;;;4990896;28;20042;-59
2022/06/01 12:18:29;;;;;;;5.10;2.78;;;;;;;;;;5028277;28;20324;-60
2022/06/01 12:21:27;;;;;;;5.82;3.00;;;;;;;;;;5030146;28;20025;-59
2022/06/01 12:30:17;;;;;;;4.55;2.40;;;;;;;;;;5031277;28;20091;-61
2022/06/01 12:33:00;;;;;;;6.28;2.30;;;;;;;;;;5028303;28;20355;-60
2022/06/01 12:35:38;;;;;;;6.00;2.60;;;;;;;;;;5026477;28;20520;-59
2022/06/01 12:38:12;;;;;;;5.43;2.30;;;;;;;;;;5031832;28;20363;-60
2022/06/01 12:40:38;;;;;;;3.95;2.50;;;;;;;;;;5029874;28;20524;-60
2022/06/01 12:43:12;;;;;;;4.78;2.42;;;;;;;;;;5027039;28;20034;-60
2022/06/01 12:45:40;;;;;;;4.40;3.08;;;;;;;;;;5022067;28;20030;-60
2022/06/01 12:48:09;;;;;;;3.40;2.83;;;;;;;;;;5014051;28;20474;-59
2022/06/01 12:50:56;;;;;;;4.93;2.92;;;;;;;;;;5030409;28;20030;-58
2022/06/01 12:53:25;;;;;;;5.65;3.55;;;;;;;;;;5029872;28;20048;-60
2022/06/01 12:56:27;;;;;;;8.68;5.20;;;;;;;;;;5031779;28;20059;-59
2022/06/01 12:58:54;;;;;;;8.15;5.57;;;;;;;;;;5008835;28;20041;-59
2022/06/01 13:01:21;;;;;;;7.88;5.65;;;;;;;;;;5031923;28;20076;-61
2022/06/01 13:03:56;;;;;;;6.30;4.38;;;;;;;;;;5031281;28;20116;-58
2022/06/01 13:06:24;;;;;;;6.25;4.35;;;;;;;;;;5011746;28;20037;-58
2022/06/01 13:08:58;;;;;;;9.80;5.22;;;;;;;;;;5031222;28;20532;-57
2022/06/01 13:11:28;;;;;;;7.88;5.65;;;;;;;;;;5030540;28;20474;-58
2022/06/01 13:13:56;;;;;;;8.85;7.00;;;;;;;;;;5029314;28;20029;-58
2022/06/01 13:16:22;;;;;;;7.95;6.32;;;;;;;;;;5031580;28;20458;-59
2022/06/01 13:18:48;;;;;;;9.57;5.20;;;;;;;;;;5029817;28;20120;-60
2022/06/01 13:21:17;;;;;;;7.43;5.22;;;;;;;;;;5029718;28;20083;-60
2022/06/01 13:23:56;;;;;;;7.53;4.90;;;;;;;;;;5031022;28;20112;-59
2022/06/01 13:26:27;;;;;;;7.05;5.40;;;;;;;;;;5015139;28;20057;-59
2022/06/01 13:28:53;;;;;;;7.45;5.57;;;;;;;;;;5031224;28;20117;-59
2022/06/01 13:31:18;;;;;;;7.25;5.88;;;;;;;;;;5030289;28;20112;-60
2022/06/01 13:33:45;;;;;;;10.43;6.47;;;;;;;;;;5030734;28;20534;-58
2022/06/01 13:36:24;;;;;;;11.02;7.43;;;;;;;;;;5028994;28;20033;-59
2022/06/01 13:38:50;;;;;;;7.70;6.18;;;;;;;;;;5031511;28;20029;-59
2022/06/01 13:41:57;;;;;;;8.68;6.40;;;;;;;;;;5029182;28;20496;-60
2022/06/01 13:44:42;;;;;;;9.07;6.93;;;;;;;;;;5022724;28;20437;-59
2022/06/01 13:47:08;;;;;;;8.18;6.95;;;;;;;;;;5013366;28;20041;-59
2022/06/01 13:49:34;;;;;;;9.18;7.00;;;;;;;;;;5014664;28;20096;-60
2022/06/01 13:52:03;;;;;;;9.70;6.95;;;;;;;;;;5027055;28;20040;-59
2022/06/01 13:54:34;;;;;;;9.02;7.00;;;;;;;;;;5028542;28;20054;-57
2022/06/01 13:57:11;;;;;;;7.78;6.00;;;;;;;;;;5030321;28;20036;-58
2022/06/01 13:59:40;;;;;;;8.38;5.70;;;;;;;;;;5030315;28;20116;-59
2022/06/01 14:02:12;;;;;;;7.03;5.03;;;;;;;;;;5031100;28;20470;-59
2022/06/01 14:04:46;;;;;;;9.20;4.70;;;;;;;;;;5029635;28;20398;-59
2022/06/01 14:07:14;;;;;;;5.70;5.10;;;;;;;;;;5027793;28;20026;-59
2022/06/01 14:09:51;;;;;;;5.35;4.32;;;;;;;;;;5030799;28;20038;-58
2022/06/01 14:12:17;;;;;;;5.65;4.13;;;;;;;;;;5033908;28;20033;-59
2022/06/01 14:14:46;;;;;;;5.20;3.90;;;;;;;;;;5016249;28;20040;-60
2022/06/01 14:17:13;;;;;;;5.57;3.83;;;;;;;;;;5016478;28;20037;-60
2022/06/01 14:19:39;;;;;;;4.68;3.80;;;;;;;;;;5034850;28;20112;-60
2022/06/01 14:22:06;;;;;;;5.07;4.00;;;;;;;;;;5035499;28;20064;-60
2022/06/01 14:30:04;;;;;;;6.35;4.28;;;;;;;;;;5034978;28;20037;-59
2022/06/01 14:32:30;;;;;;;6.82;4.65;;;;;;;;;;5034445;28;20040;-59
2022/06/01 14:34:55;;;;;;;6.00;4.35;;;;;;;;;;5028983;28;20030;-61
2022/06/01 14:37:21;;;;;;;5.05;3.63;;;;;;;;;;5034295;28;20366;-61
2022/06/01 14:39:46;;;;;;;6.80;4.43;;;;;;;;;;5032995;28;20401;-61
2022/06/01 14:42:12;;;;;;;5.82;3.83;;;;;;;;;;5032658;28;20470;-61
2022/06/01 14:44:37;;;;;;;6.38;4.10;;;;;;;;;;5032042;28;20064;-61
2022/06/01 14:47:03;;;;;;;5.55;4.00;;;;;;;;;;5032274;28;20041;-61
2022/06/01 14:49:28;;;;;;;4.82;3.63;;;;;;;;;;5019128;28;20123;-61
2022/06/01 14:51:57;;;;;;;7.68;4.18;;;;;;;;;;5021426;28;20527;-61
2022/06/01 14:54:27;;;;;;;7.35;3.83;;;;;;;;;;5032682;28;20147;-62
2022/06/01 14:56:53;;;;;;;8.87;4.07;;;;;;;;;;5031983;28;20116;-61
2022/06/01 14:59:18;;;;;;;6.43;4.30;;;;;;;;;;5033491;28;20551;-61
2022/06/01 15:01:47;;;;;;;5.68;4.32;;;;;;;;;;5033529;28;20056;-61
2022/06/01 15:04:15;;;;;;;7.72;4.60;;;;;;;;;;5024145;28;20041;-61
2022/06/01 15:06:43;;;;;;;7.55;5.15;;;;;;;;;;5015207;28;20048;-62
2022/06/01 15:09:10;;;;;;;7.85;5.18;;;;;;;;;;5033616;28;20037;-62
2022/06/01 15:11:39;;;;;;;7.45;5.88;;;;;;;;;;5030655;28;20034;-62
2022/06/01 15:14:06;;;;;;;7.35;5.70;;;;;;;;;;5027381;28;20079;-62
2022/06/01 15:16:32;;;;;;;8.43;5.78;;;;;;;;;;5032557;28;20041;-62
2022/06/01 15:18:58;;;;;;;7.10;5.95;;;;;;;;;;5034166;28;20056;-61
2022/06/01 15:21:25;;;;;;;7.78;5.03;;;;;;;;;;5031499;28;20026;-61
2022/06/01 15:23:51;;;;;;;6.57;5.65;;;;;;;;;;5034234;28;20037;-61